sensor_id;sensor_type;location;lat;lon;timestamp;P1;durP1;ratioP1;P2;durP2;ratioP2
53285;SDS011;39171;45.550;12.074;2022-10-16T00:01:40;11.45;;;9.80;;
53285;SDS011;39171;45.550;12.074;2022-10-16T00:07:42;11.77;;;9.93;;
53285;SDS011;39171;45.550;12.074;2022-10-16T00:13:44;12.55;;;10.50;;
53285;SDS011;39171;45.550;12.074;2022-10-16T00:19:46;11.45;;;9.88;;
53285;SDS011;39171;45.550;12.074;2022-10-16T00:25:58;11.10;;;9.75;;
53285;SDS011;39171;45.550;12.074;2022-10-16T00:32:01;11.40;;;9.75;;
53285;SDS011;39171;45.550;12.074;2022-10-16T00:38:02;11.07;;;9.68;;
53285;SDS011;39171;45.550;12.074;2022-10-16T00:44:40;12.32;;;9.85;;
53285;SDS011;39171;45.550;12.074;2022-10-16T00:50:43;11.02;;;9.30;;
53285;SDS011;39171;45.550;12.074;2022-10-16T00:56:44;10.50;;;9.27;;
53285;SDS011;39171;45.550;12.074;2022-10-16T01:02:54;10.57;;;8.93;;
53285;SDS011;39171;45.550;12.074;2022-10-16T01:15:27;10.25;;;9.07;;
53285;SDS011;39171;45.550;12.074;2022-10-16T01:21:38;10.93;;;9.23;;
53285;SDS011;39171;45.550;12.074;2022-10-16T01:27:42;10.02;;;8.18;;
53285;SDS011;39171;45.550;12.074;2022-10-16T01:33:51;10.93;;;9.57;;
53285;SDS011;39171;45.550;12.074;2022-10-16T01:40:03;11.27;;;9.52;;
53285;SDS011;39171;45.550;12.074;2022-10-16T01:46:08;11.52;;;9.77;;
53285;SDS011;39171;45.550;12.074;2022-10-16T01:52:14;11.85;;;9.77;;
53285;SDS011;39171;45.550;12.074;2022-10-16T01:58:20;11.13;;;9.80;;
53285;SDS011;39171;45.550;12.074;2022-10-16T02:04:24;12.23;;;10.10;;
53285;SDS011;39171;45.550;12.074;2022-10-16T02:10:32;12.43;;;10.05;;
53285;SDS011;39171;45.550;12.074;2022-10-16T02:16:40;10.98;;;9.38;;
53285;SDS011;39171;45.550;12.074;2022-10-16T02:22:46;11.25;;;10.00;;
53285;SDS011;39171;45.550;12.074;2022-10-16T02:28:52;13.23;;;10.57;;
53285;SDS011;39171;45.550;12.074;2022-10-16T02:34:59;14.77;;;11.65;;
53285;SDS011;39171;45.550;12.074;2022-10-16T02:41:02;12.90;;;9.90;;
53285;SDS011;39171;45.550;12.074;2022-10-16T02:47:05;12.20;;;10.60;;
53285;SDS011;39171;45.550;12.074;2022-10-16T02:53:07;13.38;;;10.63;;
53285;SDS011;39171;45.550;12.074;2022-10-16T02:59:08;12.85;;;10.55;;
53285;SDS011;39171;45.550;12.074;2022-10-16T03:05:10;13.18;;;11.15;;
53285;SDS011;39171;45.550;12.074;2022-10-16T03:11:11;14.57;;;11.48;;
53285;SDS011;39171;45.550;12.074;2022-10-16T03:17:13;15.65;;;12.23;;
53285;SDS011;39171;45.550;12.074;2022-10-16T03:23:17;14.55;;;12.05;;
53285;SDS011;39171;45.550;12.074;2022-10-16T03:29:19;16.67;;;12.15;;
53285;SDS011;39171;45.550;12.074;2022-10-16T03:35:24;16.17;;;12.70;;
53285;SDS011;39171;45.550;12.074;2022-10-16T03:41:25;14.00;;;11.40;;
53285;SDS011;39171;45.550;12.074;2022-10-16T03:47:27;16.45;;;13.38;;
53285;SDS011;39171;45.550;12.074;2022-10-16T03:53:29;17.73;;;13.90;;
53285;SDS011;39171;45.550;12.074;2022-10-16T03:59:31;16.65;;;13.15;;
53285;SDS011;39171;45.550;12.074;2022-10-16T04:05:33;16.95;;;13.18;;
53285;SDS011;39171;45.550;12.074;2022-10-16T04:11:34;16.27;;;12.77;;
53285;SDS011;39171;45.550;12.074;2022-10-16T04:17:35;16.70;;;13.70;;
53285;SDS011;39171;45.550;12.074;2022-10-16T04:23:37;18.67;;;15.27;;
53285;SDS011;39171;45.550;12.074;2022-10-16T04:29:38;18.90;;;16.20;;
53285;SDS011;39171;45.550;12.074;2022-10-16T04:35:39;19.15;;;15.55;;
53285;SDS011;39171;45.550;12.074;2022-10-16T04:41:41;20.35;;;16.35;;
53285;SDS011;39171;45.550;12.074;2022-10-16T04:47:42;21.17;;;17.35;;
53285;SDS011;39171;45.550;12.074;2022-10-16T04:53:44;23.40;;;18.48;;
53285;SDS011;39171;45.550;12.074;2022-10-16T04:59:45;22.42;;;18.85;;
53285;SDS011;39171;45.550;12.074;2022-10-16T05:05:47;21.35;;;18.00;;
53285;SDS011;39171;45.550;12.074;2022-10-16T05:11:48;22.73;;;18.83;;
53285;SDS011;39171;45.550;12.074;2022-10-16T05:17:51;22.98;;;19.20;;
53285;SDS011;39171;45.550;12.074;2022-10-16T05:23:54;27.48;;;21.02;;
53285;SDS011;39171;45.550;12.074;2022-10-16T05:29:56;23.48;;;20.08;;
53285;SDS011;39171;45.550;12.074;2022-10-16T05:36:00;22.70;;;19.65;;
53285;SDS011;39171;45.550;12.074;2022-10-16T05:42:06;24.57;;;20.90;;
53285;SDS011;39171;45.550;12.074;2022-10-16T05:48:08;25.77;;;20.83;;
53285;SDS011;39171;45.550;12.074;2022-10-16T05:54:09;27.77;;;22.83;;
53285;SDS011;39171;45.550;12.074;2022-10-16T06:00:11;25.13;;;21.45;;
53285;SDS011;39171;45.550;12.074;2022-10-16T06:06:14;26.55;;;21.90;;
53285;SDS011;39171;45.550;12.074;2022-10-16T06:12:20;25.88;;;21.73;;
53285;SDS011;39171;45.550;12.074;2022-10-16T06:18:22;24.90;;;21.55;;
53285;SDS011;39171;45.550;12.074;2022-10-16T06:24:24;26.65;;;22.13;;
53285;SDS011;39171;45.550;12.074;2022-10-16T06:30:26;26.13;;;21.73;;
53285;SDS011;39171;45.550;12.074;2022-10-16T06:36:27;25.70;;;22.15;;
53285;SDS011;39171;45.550;12.074;2022-10-16T06:42:29;26.92;;;22.38;;
53285;SDS011;39171;45.550;12.074;2022-10-16T06:48:38;26.02;;;22.67;;
53285;SDS011;39171;45.550;12.074;2022-10-16T06:54:40;26.38;;;22.02;;
53285;SDS011;39171;45.550;12.074;2022-10-16T07:00:41;23.65;;;21.08;;
53285;SDS011;39171;45.550;12.074;2022-10-16T07:06:42;21.65;;;19.15;;
53285;SDS011;39171;45.550;12.074;2022-10-16T07:12:44;21.80;;;19.05;;
53285;SDS011;39171;45.550;12.074;2022-10-16T07:18:46;21.95;;;19.40;;
53285;SDS011;39171;45.550;12.074;2022-10-16T07:24:49;22.48;;;18.88;;
53285;SDS011;39171;45.550;12.074;2022-10-16T07:31:07;21.25;;;18.77;;
53285;SDS011;39171;45.550;12.074;2022-10-16T07:37:11;20.30;;;17.75;;
53285;SDS011;39171;45.550;12.074;2022-10-16T07:43:13;19.55;;;17.45;;
53285;SDS011;39171;45.550;12.074;2022-10-16T07:49:15;19.98;;;17.20;;
53285;SDS011;39171;45.550;12.074;2022-10-16T07:55:16;17.90;;;15.93;;
53285;SDS011;39171;45.550;12.074;2022-10-16T08:01:18;18.88;;;16.10;;
53285;SDS011;39171;45.550;12.074;2022-10-16T08:07:20;17.95;;;15.80;;
53285;SDS011;39171;45.550;12.074;2022-10-16T08:13:21;18.50;;;16.42;;
53285;SDS011;39171;45.550;12.074;2022-10-16T08:19:23;15.52;;;13.93;;
53285;SDS011;39171;45.550;12.074;2022-10-16T08:25:24;15.43;;;13.68;;
53285;SDS011;39171;45.550;12.074;2022-10-16T08:31:27;13.32;;;11.93;;
53285;SDS011;39171;45.550;12.074;2022-10-16T08:37:32;12.80;;;11.43;;
53285;SDS011;39171;45.550;12.074;2022-10-16T08:43:36;12.10;;;10.90;;
53285;SDS011;39171;45.550;12.074;2022-10-16T08:49:42;13.50;;;11.60;;
53285;SDS011;39171;45.550;12.074;2022-10-16T08:55:51;11.10;;;9.88;;
53285;SDS011;39171;45.550;12.074;2022-10-16T09:01:55;17.52;;;13.38;;
53285;SDS011;39171;45.550;12.074;2022-10-16T09:14:30;12.02;;;10.68;;
53285;SDS011;39171;45.550;12.074;2022-10-16T09:27:12;22.83;;;16.48;;
53285;SDS011;39171;45.550;12.074;2022-10-16T09:33:15;12.43;;;10.25;;
53285;SDS011;39171;45.550;12.074;2022-10-16T09:39:19;15.30;;;12.43;;
53285;SDS011;39171;45.550;12.074;2022-10-16T09:45:22;17.02;;;13.55;;
53285;SDS011;39171;45.550;12.074;2022-10-16T09:51:26;23.02;;;17.17;;
53285;SDS011;39171;45.550;12.074;2022-10-16T09:57:27;19.45;;;15.18;;
53285;SDS011;39171;45.550;12.074;2022-10-16T10:03:40;21.45;;;16.35;;
53285;SDS011;39171;45.550;12.074;2022-10-16T10:09:44;15.10;;;12.77;;
53285;SDS011;39171;45.550;12.074;2022-10-16T10:15:47;17.13;;;14.20;;
53285;SDS011;39171;45.550;12.074;2022-10-16T10:21:52;19.85;;;16.55;;
53285;SDS011;39171;45.550;12.074;2022-10-16T10:41:03;25.95;;;19.98;;
53285;SDS011;39171;45.550;12.074;2022-10-16T11:06:29;30.48;;;22.40;;
53285;SDS011;39171;45.550;12.074;2022-10-16T11:12:44;28.05;;;21.35;;
53285;SDS011;39171;45.550;12.074;2022-10-16T11:19:03;24.20;;;20.13;;
53285;SDS011;39171;45.550;12.074;2022-10-16T11:31:49;27.50;;;21.23;;
53285;SDS011;39171;45.550;12.074;2022-10-16T11:38:00;25.33;;;21.58;;
53285;SDS011;39171;45.550;12.074;2022-10-16T11:56:40;30.55;;;25.17;;
53285;SDS011;39171;45.550;12.074;2022-10-16T12:02:54;30.67;;;24.08;;
53285;SDS011;39171;45.550;12.074;2022-10-16T12:09:00;28.73;;;22.75;;
53285;SDS011;39171;45.550;12.074;2022-10-16T12:21:30;26.67;;;22.33;;
53285;SDS011;39171;45.550;12.074;2022-10-16T12:27:32;31.48;;;25.05;;
53285;SDS011;39171;45.550;12.074;2022-10-16T12:33:35;32.65;;;26.38;;
53285;SDS011;39171;45.550;12.074;2022-10-16T12:39:56;27.83;;;22.98;;
53285;SDS011;39171;45.550;12.074;2022-10-16T12:52:04;33.25;;;26.42;;
53285;SDS011;39171;45.550;12.074;2022-10-16T12:58:24;34.97;;;26.95;;
53285;SDS011;39171;45.550;12.074;2022-10-16T13:04:40;35.88;;;27.83;;
53285;SDS011;39171;45.550;12.074;2022-10-16T13:17:32;30.77;;;25.42;;
53285;SDS011;39171;45.550;12.074;2022-10-16T13:29:52;32.10;;;25.40;;
53285;SDS011;39171;45.550;12.074;2022-10-16T13:35:59;30.35;;;24.92;;
53285;SDS011;39171;45.550;12.074;2022-10-16T13:42:11;29.67;;;24.10;;
53285;SDS011;39171;45.550;12.074;2022-10-16T13:48:15;27.77;;;22.95;;
53285;SDS011;39171;45.550;12.074;2022-10-16T13:54:17;25.50;;;22.55;;
53285;SDS011;39171;45.550;12.074;2022-10-16T14:06:24;26.65;;;22.02;;
53285;SDS011;39171;45.550;12.074;2022-10-16T14:12:25;28.73;;;23.80;;
53285;SDS011;39171;45.550;12.074;2022-10-16T14:18:27;29.20;;;24.77;;
53285;SDS011;39171;45.550;12.074;2022-10-16T14:30:35;31.63;;;25.10;;
53285;SDS011;39171;45.550;12.074;2022-10-16T14:36:37;28.23;;;23.42;;
53285;SDS011;39171;45.550;12.074;2022-10-16T14:42:42;25.92;;;21.90;;
53285;SDS011;39171;45.550;12.074;2022-10-16T14:48:48;32.92;;;27.20;;
53285;SDS011;39171;45.550;12.074;2022-10-16T14:54:51;29.50;;;25.80;;
53285;SDS011;39171;45.550;12.074;2022-10-16T15:00:57;26.75;;;23.27;;
53285;SDS011;39171;45.550;12.074;2022-10-16T15:06:58;32.80;;;25.55;;
53285;SDS011;39171;45.550;12.074;2022-10-16T15:13:00;30.67;;;24.92;;
53285;SDS011;39171;45.550;12.074;2022-10-16T15:19:01;28.70;;;24.77;;
53285;SDS011;39171;45.550;12.074;2022-10-16T15:25:08;23.23;;;20.70;;
53285;SDS011;39171;45.550;12.074;2022-10-16T15:31:26;22.92;;;20.17;;
53285;SDS011;39171;45.550;12.074;2022-10-16T15:37:28;24.20;;;21.23;;
53285;SDS011;39171;45.550;12.074;2022-10-16T15:43:29;22.33;;;19.92;;
53285;SDS011;39171;45.550;12.074;2022-10-16T15:49:31;25.83;;;21.73;;
53285;SDS011;39171;45.550;12.074;2022-10-16T15:55:32;26.30;;;22.90;;
53285;SDS011;39171;45.550;12.074;2022-10-16T16:01:35;23.52;;;20.92;;
53285;SDS011;39171;45.550;12.074;2022-10-16T16:07:37;25.05;;;21.77;;
53285;SDS011;39171;45.550;12.074;2022-10-16T16:13:39;24.77;;;21.63;;
53285;SDS011;39171;45.550;12.074;2022-10-16T16:19:45;18.75;;;16.75;;
53285;SDS011;39171;45.550;12.074;2022-10-16T16:26:01;19.30;;;17.23;;
53285;SDS011;39171;45.550;12.074;2022-10-16T16:32:06;20.35;;;18.23;;
53285;SDS011;39171;45.550;12.074;2022-10-16T16:38:11;18.55;;;16.63;;
53285;SDS011;39171;45.550;12.074;2022-10-16T16:44:12;15.20;;;13.60;;
53285;SDS011;39171;45.550;12.074;2022-10-16T16:50:15;17.20;;;15.35;;
53285;SDS011;39171;45.550;12.074;2022-10-16T16:56:17;15.02;;;13.40;;
53285;SDS011;39171;45.550;12.074;2022-10-16T17:02:19;13.07;;;11.70;;
53285;SDS011;39171;45.550;12.074;2022-10-16T17:08:21;15.35;;;13.57;;
53285;SDS011;39171;45.550;12.074;2022-10-16T17:14:23;11.35;;;10.15;;
53285;SDS011;39171;45.550;12.074;2022-10-16T17:20:24;11.63;;;10.43;;
53285;SDS011;39171;45.550;12.074;2022-10-16T17:26:26;13.30;;;11.32;;
53285;SDS011;39171;45.550;12.074;2022-10-16T17:32:28;10.38;;;9.30;;
53285;SDS011;39171;45.550;12.074;2022-10-16T17:38:30;11.38;;;9.98;;
53285;SDS011;39171;45.550;12.074;2022-10-16T17:44:32;8.35;;;7.47;;
53285;SDS011;39171;45.550;12.074;2022-10-16T17:50:33;8.57;;;7.63;;
53285;SDS011;39171;45.550;12.074;2022-10-16T17:56:44;8.02;;;7.20;;
53285;SDS011;39171;45.550;12.074;2022-10-16T18:02:48;8.57;;;7.63;;
53285;SDS011;39171;45.550;12.074;2022-10-16T18:08:50;9.18;;;8.15;;
53285;SDS011;39171;45.550;12.074;2022-10-16T18:14:53;9.25;;;8.00;;
53285;SDS011;39171;45.550;12.074;2022-10-16T18:20:58;10.13;;;7.88;;
53285;SDS011;39171;45.550;12.074;2022-10-16T18:27:01;9.30;;;8.30;;
53285;SDS011;39171;45.550;12.074;2022-10-16T18:33:02;9.93;;;8.60;;
53285;SDS011;39171;45.550;12.074;2022-10-16T18:39:04;10.98;;;9.20;;
53285;SDS011;39171;45.550;12.074;2022-10-16T18:45:09;12.15;;;9.82;;
53285;SDS011;39171;45.550;12.074;2022-10-16T18:51:12;12.70;;;10.63;;
53285;SDS011;39171;45.550;12.074;2022-10-16T18:57:21;11.57;;;10.35;;
53285;SDS011;39171;45.550;12.074;2022-10-16T19:03:25;13.45;;;11.65;;
53285;SDS011;39171;45.550;12.074;2022-10-16T19:09:27;13.85;;;11.98;;
53285;SDS011;39171;45.550;12.074;2022-10-16T19:15:29;13.05;;;11.65;;
53285;SDS011;39171;45.550;12.074;2022-10-16T19:21:33;14.07;;;11.93;;
53285;SDS011;39171;45.550;12.074;2022-10-16T19:27:35;15.57;;;12.45;;
53285;SDS011;39171;45.550;12.074;2022-10-16T19:33:37;14.75;;;13.07;;
53285;SDS011;39171;45.550;12.074;2022-10-16T19:39:40;16.02;;;13.20;;
53285;SDS011;39171;45.550;12.074;2022-10-16T19:45:41;17.17;;;14.85;;
53285;SDS011;39171;45.550;12.074;2022-10-16T19:51:47;16.73;;;14.90;;
53285;SDS011;39171;45.550;12.074;2022-10-16T19:57:51;17.33;;;15.43;;
53285;SDS011;39171;45.550;12.074;2022-10-16T20:03:52;18.38;;;15.45;;
53285;SDS011;39171;45.550;12.074;2022-10-16T20:09:54;18.73;;;16.73;;
53285;SDS011;39171;45.550;12.074;2022-10-16T20:15:55;20.13;;;17.85;;
53285;SDS011;39171;45.550;12.074;2022-10-16T20:21:57;18.27;;;15.90;;
53285;SDS011;39171;45.550;12.074;2022-10-16T20:27:58;18.42;;;16.08;;
53285;SDS011;39171;45.550;12.074;2022-10-16T20:34:01;19.52;;;17.42;;
53285;SDS011;39171;45.550;12.074;2022-10-16T20:40:08;21.77;;;19.10;;
53285;SDS011;39171;45.550;12.074;2022-10-16T20:46:10;20.75;;;17.90;;
53285;SDS011;39171;45.550;12.074;2022-10-16T20:52:13;21.75;;;19.38;;
53285;SDS011;39171;45.550;12.074;2022-10-16T20:58:14;22.45;;;19.65;;
53285;SDS011;39171;45.550;12.074;2022-10-16T21:04:17;24.83;;;20.70;;
53285;SDS011;39171;45.550;12.074;2022-10-16T21:10:19;25.25;;;21.45;;
53285;SDS011;39171;45.550;12.074;2022-10-16T21:16:21;25.42;;;21.02;;
53285;SDS011;39171;45.550;12.074;2022-10-16T21:22:27;23.38;;;20.23;;
53285;SDS011;39171;45.550;12.074;2022-10-16T21:28:30;24.77;;;20.92;;
53285;SDS011;39171;45.550;12.074;2022-10-16T21:34:33;26.17;;;20.90;;
53285;SDS011;39171;45.550;12.074;2022-10-16T21:40:35;26.83;;;20.52;;
53285;SDS011;39171;45.550;12.074;2022-10-16T21:46:37;23.40;;;20.15;;
53285;SDS011;39171;45.550;12.074;2022-10-16T21:52:40;24.63;;;20.85;;
53285;SDS011;39171;45.550;12.074;2022-10-16T21:58:42;26.52;;;22.50;;
53285;SDS011;39171;45.550;12.074;2022-10-16T22:04:44;26.70;;;22.52;;
53285;SDS011;39171;45.550;12.074;2022-10-16T22:10:45;27.60;;;23.20;;
53285;SDS011;39171;45.550;12.074;2022-10-16T22:16:47;26.52;;;22.40;;
53285;SDS011;39171;45.550;12.074;2022-10-16T22:22:53;26.48;;;21.83;;
53285;SDS011;39171;45.550;12.074;2022-10-16T22:28:54;25.27;;;20.73;;
53285;SDS011;39171;45.550;12.074;2022-10-16T22:34:56;25.13;;;20.60;;
53285;SDS011;39171;45.550;12.074;2022-10-16T22:41:01;26.65;;;21.95;;
53285;SDS011;39171;45.550;12.074;2022-10-16T22:47:03;25.60;;;21.02;;
53285;SDS011;39171;45.550;12.074;2022-10-16T22:53:05;29.05;;;22.15;;
53285;SDS011;39171;45.550;12.074;2022-10-16T22:59:07;25.55;;;20.38;;
53285;SDS011;39171;45.550;12.074;2022-10-16T23:05:09;23.80;;;20.38;;
53285;SDS011;39171;45.550;12.074;2022-10-16T23:11:11;25.98;;;21.38;;
53285;SDS011;39171;45.550;12.074;2022-10-16T23:17:13;26.08;;;21.08;;
53285;SDS011;39171;45.550;12.074;2022-10-16T23:23:14;26.92;;;21.05;;
53285;SDS011;39171;45.550;12.074;2022-10-16T23:29:16;24.50;;;20.25;;
53285;SDS011;39171;45.550;12.074;2022-10-16T23:35:18;26.20;;;20.52;;
53285;SDS011;39171;45.550;12.074;2022-10-16T23:41:19;25.15;;;20.17;;
53285;SDS011;39171;45.550;12.074;2022-10-16T23:47:21;23.13;;;19.52;;
53285;SDS011;39171;45.550;12.074;2022-10-16T23:53:22;23.13;;;20.13;;
53285;SDS011;39171;45.550;12.074;2022-10-16T23:59:24;24.17;;;19.95;;
